sensor_id;sensor_type;location;lat;lon;timestamp;P1;durP1;ratioP1;P2;durP2;ratioP2
20104;SDS011;10212;42.714;23.310;2022-07-21T00:04:39;4.68;;;3.10;;
20104;SDS011;10212;42.714;23.310;2022-07-21T00:09:39;6.30;;;3.40;;
20104;SDS011;10212;42.714;23.310;2022-07-21T00:14:40;9.32;;;3.22;;
20104;SDS011;10212;42.714;23.310;2022-07-21T00:19:41;5.82;;;3.00;;
20104;SDS011;10212;42.714;23.310;2022-07-21T00:24:41;5.75;;;2.85;;
20104;SDS011;10212;42.714;23.310;2022-07-21T00:29:42;3.13;;;2.75;;
20104;SDS011;10212;42.714;23.310;2022-07-21T00:34:43;5.45;;;2.80;;
20104;SDS011;10212;42.714;23.310;2022-07-21T00:39:44;4.07;;;2.58;;
20104;SDS011;10212;42.714;23.310;2022-07-21T00:44:45;5.57;;;2.88;;
20104;SDS011;10212;42.714;23.310;2022-07-21T00:49:46;6.20;;;2.80;;
20104;SDS011;10212;42.714;23.310;2022-07-21T00:54:47;4.65;;;2.80;;
20104;SDS011;10212;42.714;23.310;2022-07-21T00:59:48;5.68;;;2.45;;
20104;SDS011;10212;42.714;23.310;2022-07-21T01:04:49;4.88;;;2.70;;
20104;SDS011;10212;42.714;23.310;2022-07-21T01:09:50;3.50;;;2.90;;
20104;SDS011;10212;42.714;23.310;2022-07-21T01:14:50;6.38;;;2.83;;
20104;SDS011;10212;42.714;23.310;2022-07-21T01:19:52;3.50;;;2.80;;
20104;SDS011;10212;42.714;23.310;2022-07-21T01:24:52;3.13;;;2.80;;
20104;SDS011;10212;42.714;23.310;2022-07-21T01:29:54;7.65;;;2.40;;
20104;SDS011;10212;42.714;23.310;2022-07-21T01:34:55;2.90;;;2.60;;
20104;SDS011;10212;42.714;23.310;2022-07-21T01:39:56;3.22;;;2.42;;
20104;SDS011;10212;42.714;23.310;2022-07-21T01:45:15;7.90;;;3.17;;
20104;SDS011;10212;42.714;23.310;2022-07-21T01:50:16;7.97;;;4.10;;
20104;SDS011;10212;42.714;23.310;2022-07-21T01:55:18;10.15;;;4.25;;
20104;SDS011;10212;42.714;23.310;2022-07-21T02:00:19;7.13;;;4.05;;
20104;SDS011;10212;42.714;23.310;2022-07-21T02:05:20;6.15;;;3.22;;
20104;SDS011;10212;42.714;23.310;2022-07-21T02:10:21;4.15;;;3.08;;
20104;SDS011;10212;42.714;23.310;2022-07-21T02:15:22;12.30;;;4.57;;
20104;SDS011;10212;42.714;23.310;2022-07-21T02:20:22;9.13;;;4.28;;
20104;SDS011;10212;42.714;23.310;2022-07-21T02:25:23;5.70;;;3.08;;
20104;SDS011;10212;42.714;23.310;2022-07-21T02:35:57;5.38;;;2.47;;
20104;SDS011;10212;42.714;23.310;2022-07-21T02:40:58;5.13;;;2.60;;
20104;SDS011;10212;42.714;23.310;2022-07-21T02:45:59;4.10;;;2.60;;
20104;SDS011;10212;42.714;23.310;2022-07-21T02:50:59;3.28;;;2.60;;
20104;SDS011;10212;42.714;23.310;2022-07-21T02:56:01;5.13;;;2.50;;
20104;SDS011;10212;42.714;23.310;2022-07-21T03:01:03;4.45;;;2.70;;
20104;SDS011;10212;42.714;23.310;2022-07-21T03:06:05;4.35;;;2.70;;
20104;SDS011;10212;42.714;23.310;2022-07-21T03:11:06;9.75;;;4.32;;
20104;SDS011;10212;42.714;23.310;2022-07-21T03:16:07;6.82;;;3.38;;
20104;SDS011;10212;42.714;23.310;2022-07-21T03:21:08;7.00;;;3.30;;
20104;SDS011;10212;42.714;23.310;2022-07-21T03:26:08;6.63;;;3.45;;
20104;SDS011;10212;42.714;23.310;2022-07-21T03:31:09;5.90;;;3.03;;
20104;SDS011;10212;42.714;23.310;2022-07-21T03:36:10;5.95;;;3.15;;
20104;SDS011;10212;42.714;23.310;2022-07-21T03:41:10;10.73;;;3.83;;
20104;SDS011;10212;42.714;23.310;2022-07-21T03:46:11;3.63;;;2.90;;
20104;SDS011;10212;42.714;23.310;2022-07-21T03:51:11;5.53;;;3.30;;
20104;SDS011;10212;42.714;23.310;2022-07-21T03:56:12;4.05;;;3.10;;
20104;SDS011;10212;42.714;23.310;2022-07-21T04:01:12;5.85;;;3.40;;
20104;SDS011;10212;42.714;23.310;2022-07-21T04:06:13;7.43;;;4.85;;
20104;SDS011;10212;42.714;23.310;2022-07-21T04:11:13;7.03;;;4.35;;
20104;SDS011;10212;42.714;23.310;2022-07-21T04:16:14;9.13;;;6.25;;
20104;SDS011;10212;42.714;23.310;2022-07-21T04:21:14;3.60;;;3.30;;
20104;SDS011;10212;42.714;23.310;2022-07-21T04:26:15;6.88;;;3.15;;
20104;SDS011;10212;42.714;23.310;2022-07-21T04:31:15;6.38;;;4.38;;
20104;SDS011;10212;42.714;23.310;2022-07-21T04:36:16;6.37;;;4.50;;
20104;SDS011;10212;42.714;23.310;2022-07-21T04:41:16;7.55;;;4.35;;
20104;SDS011;10212;42.714;23.310;2022-07-21T04:46:17;6.25;;;4.43;;
20104;SDS011;10212;42.714;23.310;2022-07-21T04:51:18;9.68;;;4.30;;
20104;SDS011;10212;42.714;23.310;2022-07-21T04:56:18;7.10;;;4.35;;
20104;SDS011;10212;42.714;23.310;2022-07-21T05:01:19;13.65;;;5.00;;
20104;SDS011;10212;42.714;23.310;2022-07-21T05:06:19;13.85;;;4.30;;
20104;SDS011;10212;42.714;23.310;2022-07-21T05:11:20;7.60;;;3.90;;
20104;SDS011;10212;42.714;23.310;2022-07-21T05:16:20;12.60;;;7.78;;
20104;SDS011;10212;42.714;23.310;2022-07-21T05:21:21;23.45;;;17.27;;
20104;SDS011;10212;42.714;23.310;2022-07-21T05:26:22;6.40;;;4.18;;
20104;SDS011;10212;42.714;23.310;2022-07-21T05:31:23;8.05;;;5.05;;
20104;SDS011;10212;42.714;23.310;2022-07-21T05:36:23;6.82;;;4.40;;
20104;SDS011;10212;42.714;23.310;2022-07-21T05:41:24;14.35;;;5.20;;
20104;SDS011;10212;42.714;23.310;2022-07-21T05:46:24;10.20;;;5.60;;
20104;SDS011;10212;42.714;23.310;2022-07-21T05:51:25;18.02;;;5.90;;
20104;SDS011;10212;42.714;23.310;2022-07-21T05:56:25;11.20;;;4.70;;
20104;SDS011;10212;42.714;23.310;2022-07-21T06:01:26;12.25;;;5.28;;
20104;SDS011;10212;42.714;23.310;2022-07-21T06:06:26;15.68;;;5.82;;
20104;SDS011;10212;42.714;23.310;2022-07-21T06:11:27;10.05;;;4.78;;
20104;SDS011;10212;42.714;23.310;2022-07-21T06:16:27;11.63;;;4.43;;
20104;SDS011;10212;42.714;23.310;2022-07-21T06:21:28;10.13;;;4.50;;
20104;SDS011;10212;42.714;23.310;2022-07-21T06:26:29;10.65;;;4.40;;
20104;SDS011;10212;42.714;23.310;2022-07-21T06:31:30;13.95;;;4.55;;
20104;SDS011;10212;42.714;23.310;2022-07-21T06:36:30;9.57;;;4.78;;
20104;SDS011;10212;42.714;23.310;2022-07-21T06:41:31;8.10;;;4.60;;
20104;SDS011;10212;42.714;23.310;2022-07-21T06:46:32;13.32;;;4.55;;
20104;SDS011;10212;42.714;23.310;2022-07-21T06:51:34;11.60;;;4.80;;
20104;SDS011;10212;42.714;23.310;2022-07-21T06:56:35;12.85;;;4.70;;
20104;SDS011;10212;42.714;23.310;2022-07-21T07:01:36;10.85;;;4.43;;
20104;SDS011;10212;42.714;23.310;2022-07-21T07:06:38;12.82;;;4.65;;
20104;SDS011;10212;42.714;23.310;2022-07-21T07:11:39;8.48;;;4.75;;
20104;SDS011;10212;42.714;23.310;2022-07-21T07:16:40;10.73;;;3.70;;
20104;SDS011;10212;42.714;23.310;2022-07-21T07:21:40;15.85;;;4.05;;
20104;SDS011;10212;42.714;23.310;2022-07-21T07:26:41;7.10;;;3.70;;
20104;SDS011;10212;42.714;23.310;2022-07-21T07:31:42;9.48;;;3.70;;
20104;SDS011;10212;42.714;23.310;2022-07-21T07:36:42;10.77;;;4.50;;
20104;SDS011;10212;42.714;23.310;2022-07-21T07:41:43;14.15;;;3.63;;
20104;SDS011;10212;42.714;23.310;2022-07-21T07:46:44;15.18;;;3.80;;
20104;SDS011;10212;42.714;23.310;2022-07-21T07:51:44;7.47;;;3.50;;
20104;SDS011;10212;42.714;23.310;2022-07-21T07:56:45;13.73;;;2.97;;
20104;SDS011;10212;42.714;23.310;2022-07-21T08:01:46;4.40;;;2.80;;
20104;SDS011;10212;42.714;23.310;2022-07-21T08:06:46;8.45;;;3.50;;
20104;SDS011;10212;42.714;23.310;2022-07-21T08:11:47;5.07;;;3.22;;
20104;SDS011;10212;42.714;23.310;2022-07-21T08:16:48;9.45;;;3.05;;
20104;SDS011;10212;42.714;23.310;2022-07-21T08:21:48;16.50;;;3.53;;
20104;SDS011;10212;42.714;23.310;2022-07-21T08:26:49;10.18;;;2.80;;
20104;SDS011;10212;42.714;23.310;2022-07-21T08:31:49;15.53;;;3.20;;
20104;SDS011;10212;42.714;23.310;2022-07-21T08:36:50;5.03;;;2.63;;
20104;SDS011;10212;42.714;23.310;2022-07-21T08:41:51;4.82;;;2.67;;
20104;SDS011;10212;42.714;23.310;2022-07-21T08:46:51;4.65;;;2.95;;
20104;SDS011;10212;42.714;23.310;2022-07-21T08:51:52;7.00;;;2.95;;
20104;SDS011;10212;42.714;23.310;2022-07-21T08:56:53;16.67;;;3.00;;
20104;SDS011;10212;42.714;23.310;2022-07-21T09:01:54;8.65;;;3.17;;
20104;SDS011;10212;42.714;23.310;2022-07-21T09:06:56;3.78;;;2.65;;
20104;SDS011;10212;42.714;23.310;2022-07-21T09:11:59;7.75;;;3.20;;
20104;SDS011;10212;42.714;23.310;2022-07-21T09:17:01;14.57;;;3.22;;
20104;SDS011;10212;42.714;23.310;2022-07-21T09:22:04;5.33;;;3.27;;
20104;SDS011;10212;42.714;23.310;2022-07-21T09:27:18;5.78;;;3.30;;
20104;SDS011;10212;42.714;23.310;2022-07-21T09:32:24;8.20;;;3.17;;
20104;SDS011;10212;42.714;23.310;2022-07-21T09:37:26;6.53;;;2.75;;
20104;SDS011;10212;42.714;23.310;2022-07-21T09:42:28;5.85;;;3.40;;
20104;SDS011;10212;42.714;23.310;2022-07-21T09:47:31;5.53;;;3.80;;
20104;SDS011;10212;42.714;23.310;2022-07-21T09:52:36;4.88;;;3.15;;
20104;SDS011;10212;42.714;23.310;2022-07-21T09:57:38;7.63;;;3.10;;
20104;SDS011;10212;42.714;23.310;2022-07-21T10:02:38;6.30;;;3.15;;
20104;SDS011;10212;42.714;23.310;2022-07-21T10:07:41;4.88;;;2.55;;
20104;SDS011;10212;42.714;23.310;2022-07-21T10:12:44;10.80;;;2.92;;
20104;SDS011;10212;42.714;23.310;2022-07-21T10:17:46;5.18;;;2.75;;
20104;SDS011;10212;42.714;23.310;2022-07-21T10:38:46;4.95;;;2.58;;
20104;SDS011;10212;42.714;23.310;2022-07-21T10:43:46;9.93;;;3.00;;
20104;SDS011;10212;42.714;23.310;2022-07-21T10:48:47;5.87;;;2.70;;
20104;SDS011;10212;42.714;23.310;2022-07-21T10:53:47;6.20;;;2.90;;
20104;SDS011;10212;42.714;23.310;2022-07-21T10:59:18;4.47;;;2.88;;
20104;SDS011;10212;42.714;23.310;2022-07-21T11:04:22;4.80;;;3.03;;
20104;SDS011;10212;42.714;23.310;2022-07-21T11:26:07;5.05;;;2.97;;
20104;SDS011;10212;42.714;23.310;2022-07-21T11:31:15;6.30;;;3.10;;
20104;SDS011;10212;42.714;23.310;2022-07-21T11:41:29;13.80;;;3.35;;
20104;SDS011;10212;42.714;23.310;2022-07-21T11:47:04;7.45;;;3.42;;
20104;SDS011;10212;42.714;23.310;2022-07-21T11:52:03;13.23;;;3.65;;
20104;SDS011;10212;42.714;23.310;2022-07-21T11:57:07;3.83;;;3.10;;
20104;SDS011;10212;42.714;23.310;2022-07-21T12:12:40;5.80;;;3.35;;
20104;SDS011;10212;42.714;23.310;2022-07-21T12:17:47;4.75;;;3.60;;
20104;SDS011;10212;42.714;23.310;2022-07-21T12:22:54;3.60;;;3.30;;
20104;SDS011;10212;42.714;23.310;2022-07-21T12:27:57;48.08;;;5.88;;
20104;SDS011;10212;42.714;23.310;2022-07-21T12:38:18;12.85;;;3.10;;
20104;SDS011;10212;42.714;23.310;2022-07-21T12:43:19;14.80;;;3.65;;
20104;SDS011;10212;42.714;23.310;2022-07-21T12:48:28;6.70;;;3.45;;
20104;SDS011;10212;42.714;23.310;2022-07-21T12:53:30;11.73;;;3.50;;
20104;SDS011;10212;42.714;23.310;2022-07-21T12:58:32;7.10;;;3.40;;
20104;SDS011;10212;42.714;23.310;2022-07-21T13:03:34;41.63;;;4.82;;
20104;SDS011;10212;42.714;23.310;2022-07-21T13:08:35;15.43;;;3.33;;
20104;SDS011;10212;42.714;23.310;2022-07-21T13:13:37;8.20;;;3.47;;
20104;SDS011;10212;42.714;23.310;2022-07-21T13:18:38;6.60;;;2.97;;
20104;SDS011;10212;42.714;23.310;2022-07-21T13:23:38;24.00;;;3.70;;
20104;SDS011;10212;42.714;23.310;2022-07-21T13:28:39;10.05;;;3.22;;
20104;SDS011;10212;42.714;23.310;2022-07-21T13:33:40;13.38;;;3.10;;
20104;SDS011;10212;42.714;23.310;2022-07-21T13:38:40;9.15;;;3.25;;
20104;SDS011;10212;42.714;23.310;2022-07-21T13:43:41;6.47;;;2.80;;
20104;SDS011;10212;42.714;23.310;2022-07-21T13:48:41;15.13;;;3.40;;
20104;SDS011;10212;42.714;23.310;2022-07-21T13:53:43;4.10;;;2.83;;
20104;SDS011;10212;42.714;23.310;2022-07-21T13:58:45;4.65;;;3.22;;
20104;SDS011;10212;42.714;23.310;2022-07-21T14:03:46;9.32;;;2.90;;
20104;SDS011;10212;42.714;23.310;2022-07-21T14:08:47;7.17;;;2.80;;
20104;SDS011;10212;42.714;23.310;2022-07-21T14:13:48;8.17;;;3.17;;
20104;SDS011;10212;42.714;23.310;2022-07-21T14:18:49;7.90;;;2.72;;
20104;SDS011;10212;42.714;23.310;2022-07-21T14:23:49;7.33;;;3.03;;
20104;SDS011;10212;42.714;23.310;2022-07-21T14:29:09;3.47;;;2.80;;
20104;SDS011;10212;42.714;23.310;2022-07-21T14:34:10;7.20;;;2.90;;
20104;SDS011;10212;42.714;23.310;2022-07-21T14:39:11;4.68;;;2.92;;
20104;SDS011;10212;42.714;23.310;2022-07-21T14:44:12;6.40;;;3.03;;
20104;SDS011;10212;42.714;23.310;2022-07-21T14:49:13;5.47;;;2.92;;
20104;SDS011;10212;42.714;23.310;2022-07-21T14:54:13;9.35;;;3.00;;
20104;SDS011;10212;42.714;23.310;2022-07-21T14:59:14;9.93;;;3.37;;
20104;SDS011;10212;42.714;23.310;2022-07-21T15:04:14;9.93;;;2.95;;
20104;SDS011;10212;42.714;23.310;2022-07-21T15:09:15;5.40;;;2.78;;
20104;SDS011;10212;42.714;23.310;2022-07-21T15:14:16;10.00;;;3.03;;
20104;SDS011;10212;42.714;23.310;2022-07-21T15:19:16;7.32;;;3.03;;
20104;SDS011;10212;42.714;23.310;2022-07-21T15:24:17;4.30;;;2.67;;
20104;SDS011;10212;42.714;23.310;2022-07-21T15:29:17;7.13;;;2.95;;
20104;SDS011;10212;42.714;23.310;2022-07-21T15:34:18;5.63;;;2.85;;
20104;SDS011;10212;42.714;23.310;2022-07-21T15:39:19;7.22;;;3.58;;
20104;SDS011;10212;42.714;23.310;2022-07-21T15:44:22;8.02;;;3.05;;
20104;SDS011;10212;42.714;23.310;2022-07-21T15:49:23;7.20;;;3.10;;
20104;SDS011;10212;42.714;23.310;2022-07-21T15:54:24;7.38;;;3.20;;
20104;SDS011;10212;42.714;23.310;2022-07-21T15:59:24;8.05;;;3.25;;
20104;SDS011;10212;42.714;23.310;2022-07-21T16:04:34;8.07;;;3.67;;
20104;SDS011;10212;42.714;23.310;2022-07-21T16:09:35;6.22;;;3.28;;
20104;SDS011;10212;42.714;23.310;2022-07-21T16:14:37;6.90;;;3.08;;
20104;SDS011;10212;42.714;23.310;2022-07-21T16:19:39;5.88;;;3.33;;
20104;SDS011;10212;42.714;23.310;2022-07-21T16:24:39;5.40;;;3.40;;
20104;SDS011;10212;42.714;23.310;2022-07-21T16:29:40;7.17;;;3.57;;
20104;SDS011;10212;42.714;23.310;2022-07-21T16:34:40;6.80;;;3.30;;
20104;SDS011;10212;42.714;23.310;2022-07-21T16:39:41;10.25;;;3.67;;
20104;SDS011;10212;42.714;23.310;2022-07-21T16:44:42;5.40;;;3.17;;
20104;SDS011;10212;42.714;23.310;2022-07-21T16:49:42;7.88;;;3.42;;
20104;SDS011;10212;42.714;23.310;2022-07-21T16:54:43;7.88;;;3.35;;
20104;SDS011;10212;42.714;23.310;2022-07-21T16:59:43;5.57;;;2.83;;
20104;SDS011;10212;42.714;23.310;2022-07-21T17:04:44;5.80;;;3.33;;
20104;SDS011;10212;42.714;23.310;2022-07-21T17:09:44;6.53;;;3.30;;
20104;SDS011;10212;42.714;23.310;2022-07-21T17:14:47;6.15;;;3.40;;
20104;SDS011;10212;42.714;23.310;2022-07-21T17:19:48;10.80;;;3.65;;
20104;SDS011;10212;42.714;23.310;2022-07-21T17:24:48;7.10;;;3.30;;
20104;SDS011;10212;42.714;23.310;2022-07-21T17:29:49;11.50;;;3.47;;
20104;SDS011;10212;42.714;23.310;2022-07-21T17:34:50;6.82;;;3.75;;
20104;SDS011;10212;42.714;23.310;2022-07-21T17:39:50;8.48;;;3.35;;
20104;SDS011;10212;42.714;23.310;2022-07-21T17:44:51;7.47;;;4.53;;
20104;SDS011;10212;42.714;23.310;2022-07-21T17:49:51;9.90;;;5.18;;
20104;SDS011;10212;42.714;23.310;2022-07-21T17:54:52;14.45;;;7.20;;
20104;SDS011;10212;42.714;23.310;2022-07-21T17:59:53;10.68;;;7.32;;
20104;SDS011;10212;42.714;23.310;2022-07-21T18:04:53;10.80;;;6.65;;
20104;SDS011;10212;42.714;23.310;2022-07-21T18:09:54;11.23;;;6.18;;
20104;SDS011;10212;42.714;23.310;2022-07-21T18:14:55;15.15;;;5.60;;
20104;SDS011;10212;42.714;23.310;2022-07-21T18:19:55;15.65;;;7.78;;
20104;SDS011;10212;42.714;23.310;2022-07-21T18:24:56;13.05;;;7.30;;
20104;SDS011;10212;42.714;23.310;2022-07-21T18:29:57;20.67;;;11.13;;
20104;SDS011;10212;42.714;23.310;2022-07-21T18:34:58;19.73;;;9.45;;
20104;SDS011;10212;42.714;23.310;2022-07-21T18:39:59;17.48;;;10.20;;
20104;SDS011;10212;42.714;23.310;2022-07-21T18:44:59;15.90;;;9.23;;
20104;SDS011;10212;42.714;23.310;2022-07-21T18:50:00;14.45;;;8.05;;
20104;SDS011;10212;42.714;23.310;2022-07-21T18:55:03;14.20;;;7.47;;
20104;SDS011;10212;42.714;23.310;2022-07-21T19:00:06;19.38;;;7.90;;
20104;SDS011;10212;42.714;23.310;2022-07-21T19:10:11;13.02;;;6.90;;
20104;SDS011;10212;42.714;23.310;2022-07-21T19:15:13;10.60;;;7.10;;
20104;SDS011;10212;42.714;23.310;2022-07-21T19:20:14;11.65;;;6.95;;
20104;SDS011;10212;42.714;23.310;2022-07-21T19:25:16;16.45;;;7.78;;
20104;SDS011;10212;42.714;23.310;2022-07-21T19:30:17;15.57;;;7.28;;
20104;SDS011;10212;42.714;23.310;2022-07-21T19:35:17;14.73;;;7.05;;
20104;SDS011;10212;42.714;23.310;2022-07-21T19:40:19;12.88;;;6.85;;
20104;SDS011;10212;42.714;23.310;2022-07-21T19:45:20;17.08;;;6.80;;
20104;SDS011;10212;42.714;23.310;2022-07-21T19:50:21;12.52;;;7.05;;
20104;SDS011;10212;42.714;23.310;2022-07-21T19:55:23;13.07;;;6.53;;
20104;SDS011;10212;42.714;23.310;2022-07-21T20:00:23;14.15;;;7.20;;
20104;SDS011;10212;42.714;23.310;2022-07-21T20:05:25;18.02;;;6.72;;
20104;SDS011;10212;42.714;23.310;2022-07-21T20:10:26;12.95;;;6.65;;
20104;SDS011;10212;42.714;23.310;2022-07-21T20:15:30;13.27;;;6.15;;
20104;SDS011;10212;42.714;23.310;2022-07-21T20:20:32;13.07;;;6.38;;
20104;SDS011;10212;42.714;23.310;2022-07-21T20:25:33;11.27;;;6.50;;
20104;SDS011;10212;42.714;23.310;2022-07-21T20:30:35;12.52;;;6.63;;
20104;SDS011;10212;42.714;23.310;2022-07-21T20:35:36;12.02;;;6.30;;
20104;SDS011;10212;42.714;23.310;2022-07-21T20:40:37;8.88;;;5.85;;
20104;SDS011;10212;42.714;23.310;2022-07-21T20:45:39;11.63;;;6.57;;
20104;SDS011;10212;42.714;23.310;2022-07-21T20:50:39;13.63;;;5.90;;
20104;SDS011;10212;42.714;23.310;2022-07-21T20:55:40;13.52;;;6.18;;
20104;SDS011;10212;42.714;23.310;2022-07-21T21:00:41;10.23;;;4.90;;
20104;SDS011;10212;42.714;23.310;2022-07-21T21:05:41;7.68;;;5.10;;
20104;SDS011;10212;42.714;23.310;2022-07-21T21:10:42;11.35;;;5.18;;
20104;SDS011;10212;42.714;23.310;2022-07-21T21:15:42;9.82;;;5.40;;
20104;SDS011;10212;42.714;23.310;2022-07-21T21:20:44;10.23;;;5.43;;
20104;SDS011;10212;42.714;23.310;2022-07-21T21:25:44;13.48;;;5.35;;
20104;SDS011;10212;42.714;23.310;2022-07-21T21:30:46;10.18;;;4.95;;
20104;SDS011;10212;42.714;23.310;2022-07-21T21:35:47;11.57;;;4.82;;
20104;SDS011;10212;42.714;23.310;2022-07-21T21:40:47;12.80;;;5.45;;
20104;SDS011;10212;42.714;23.310;2022-07-21T21:45:48;9.13;;;5.20;;
20104;SDS011;10212;42.714;23.310;2022-07-21T21:50:48;11.23;;;5.47;;
20104;SDS011;10212;42.714;23.310;2022-07-21T21:55:49;7.65;;;5.05;;
20104;SDS011;10212;42.714;23.310;2022-07-21T22:00:50;11.27;;;4.88;;
20104;SDS011;10212;42.714;23.310;2022-07-21T22:05:51;7.22;;;5.13;;
20104;SDS011;10212;42.714;23.310;2022-07-21T22:10:52;9.40;;;4.75;;
20104;SDS011;10212;42.714;23.310;2022-07-21T22:15:52;9.30;;;4.70;;
20104;SDS011;10212;42.714;23.310;2022-07-21T22:20:53;9.97;;;4.50;;
20104;SDS011;10212;42.714;23.310;2022-07-21T22:25:53;10.70;;;4.43;;
20104;SDS011;10212;42.714;23.310;2022-07-21T22:30:54;11.55;;;5.35;;
20104;SDS011;10212;42.714;23.310;2022-07-21T22:35:54;8.43;;;5.00;;
20104;SDS011;10212;42.714;23.310;2022-07-21T22:40:55;9.95;;;6.00;;
20104;SDS011;10212;42.714;23.310;2022-07-21T22:45:56;11.60;;;5.78;;
20104;SDS011;10212;42.714;23.310;2022-07-21T22:50:57;12.98;;;6.03;;
20104;SDS011;10212;42.714;23.310;2022-07-21T22:55:57;14.18;;;5.72;;
20104;SDS011;10212;42.714;23.310;2022-07-21T23:00:59;12.13;;;5.80;;
20104;SDS011;10212;42.714;23.310;2022-07-21T23:06:00;10.93;;;5.97;;
20104;SDS011;10212;42.714;23.310;2022-07-21T23:11:00;11.65;;;5.53;;
20104;SDS011;10212;42.714;23.310;2022-07-21T23:16:01;11.40;;;5.73;;
20104;SDS011;10212;42.714;23.310;2022-07-21T23:21:01;10.25;;;5.32;;
20104;SDS011;10212;42.714;23.310;2022-07-21T23:26:02;12.25;;;6.07;;
20104;SDS011;10212;42.714;23.310;2022-07-21T23:31:03;11.32;;;5.53;;
20104;SDS011;10212;42.714;23.310;2022-07-21T23:36:03;9.02;;;5.20;;
20104;SDS011;10212;42.714;23.310;2022-07-21T23:41:04;10.15;;;4.93;;
20104;SDS011;10212;42.714;23.310;2022-07-21T23:46:05;7.53;;;4.78;;
20104;SDS011;10212;42.714;23.310;2022-07-21T23:51:05;9.02;;;5.20;;
20104;SDS011;10212;42.714;23.310;2022-07-21T23:56:06;9.30;;;4.70;;
